Elbert, CO

6:26 AM MST on February 19, 2017 (GMT -0700)
Monument Pass

Weather History for KMNH - January, 2014

Change the Weather History Date:

Thursday, January 16, 2014

  Actual Average Record
Temperature  
Mean Temperature 26 °F -  
Max Temperature 37 °F - 51 °F (2005)
Min Temperature 14 °F - 0 °F (2007)
Degree Days  
Heating Degree Days 40    
Month to date heating degree days  
Cooling Degree Days 0    
Month to date cooling degree days  
Moisture  
Dew Point 12 °F    
Average Humidity 54    
Maximum Humidity 86    
Minimum Humidity 33    
Precipitation  
Precipitation 0.00 in - 0.02 in (2017)
Sea Level Pressure  
Sea Level Pressure 30.18 in    
Wind  
Wind Speed 8 mph (NW)    
Max Wind Speed 15 mph    
Max Gust Speed -    
Visibility 10 miles    
Events      
T = Trace of Precipitation, MM = Missing Value Source: NWS Daily Summary

Daily Weather History Graph

Daily Weather History Graph

Search for Another Location

Airport or City:

Trip Planner

Search our weather history database for the weather conditions in past years. The results will help you decide how hot, cold, wet, or windy it might be!

Date:

Astronomy

Jan. 16, 2014 Rise Set
Actual Time 7:16 AM MST 5:01 PM MST
Civil Twilight 6:46 AM MST 5:30 PM MST
Nautical Twilight 6:13 AM MST 6:03 PM MST
Astronomical Twilight 5:41 AM MST 6:35 PM MST
Moon 5:54 PM MST (1/16) 7:11 AM MST (1/16)
Length of Visible Light 10h 43m
Length of Day
9h 45m
Full, 100% of the Moon is Illuminated
Jan 16
Full
Jan 23
Last Quarter
Jan 30
New
Feb 6
First Quarter
Feb 14
Full

Hourly Weather History & Observations

Time (MST) Temp. Windchill Dew Point Humidity Pressure Visibility Wind Dir Wind Speed Gust Speed Precip Events Conditions
12:12 AM 26.6 °F 19.1 °F 10.4 °F 51% 30.09 in 10.0 mi West 6.9 mph - N/A   Clear
12:32 AM 26.6 °F 17.5 °F 10.4 °F 51% 30.10 in 10.0 mi West 9.2 mph - N/A   Clear
12:52 AM 28.4 °F 19.1 °F 10.4 °F 47% 30.09 in 10.0 mi West 10.4 mph - N/A   Clear
1:12 AM 28.4 °F 19.1 °F 10.4 °F 47% 30.10 in 10.0 mi West 10.4 mph - N/A   Clear
1:32 AM 28.4 °F 19.7 °F 10.4 °F 47% 30.11 in 10.0 mi West 9.2 mph - N/A   Clear
1:52 AM 28.4 °F 19.1 °F 10.4 °F 47% 30.12 in 10.0 mi West 10.4 mph - N/A   Clear
2:12 AM 26.6 °F 17.5 °F 10.4 °F 51% 30.11 in 10.0 mi West 9.2 mph - N/A   Clear
2:31 AM 26.6 °F 18.2 °F 10.4 °F 51% 30.12 in 10.0 mi West 8.1 mph - N/A   Clear
2:52 AM 24.8 °F 16.1 °F 10.4 °F 54% 30.12 in 10.0 mi West 8.1 mph - N/A   Clear
3:12 AM 23.0 °F 12.4 °F 10.4 °F 59% 30.11 in 10.0 mi WSW 10.4 mph - N/A   Clear
3:32 AM 23.0 °F 14.7 °F 8.6 °F 54% 30.10 in 10.0 mi West 6.9 mph - N/A   Clear
3:52 AM 30.2 °F 24.3 °F 6.8 °F 37% 30.10 in 10.0 mi West 5.8 mph - N/A   Clear
4:12 AM 28.4 °F 19.1 °F 6.8 °F 40% 30.10 in 10.0 mi WNW 10.4 mph - N/A   Clear
4:32 AM 26.6 °F 15.7 °F 8.6 °F 47% 30.12 in 10.0 mi NW 12.7 mph - N/A   Clear
4:52 AM 24.8 °F 13.4 °F 8.6 °F 50% 30.12 in 10.0 mi WNW 12.7 mph - N/A   Clear
5:12 AM 21.2 °F 9.5 °F 8.6 °F 58% 30.13 in 10.0 mi West 11.5 mph - N/A   Clear
5:32 AM 26.6 °F 16.8 °F 6.8 °F 43% 30.13 in 10.0 mi West 10.4 mph - N/A   Clear
5:52 AM 23.0 °F 13.9 °F 6.8 °F 50% 30.15 in 10.0 mi WNW 8.1 mph - N/A   Clear
6:12 AM 24.8 °F 15.3 °F 6.8 °F 46% 30.14 in 10.0 mi NW 9.2 mph - N/A   Clear
6:32 AM 28.4 °F 18.0 °F 6.8 °F 40% 30.15 in 10.0 mi NNW 12.7 mph - N/A   Clear
6:52 AM 28.4 °F 17.5 °F 8.6 °F 43% 30.15 in 10.0 mi North 13.8 mph - N/A   Clear
7:11 AM 26.6 °F 17.5 °F 10.4 °F 51% 30.16 in 10.0 mi NNE 9.2 mph - N/A   Clear
7:32 AM 21.2 °F 13.6 °F 12.2 °F 68% 30.16 in 10.0 mi ENE 5.8 mph - N/A   Clear
7:52 AM 19.4 °F 11.5 °F 12.2 °F 74% 30.18 in 10.0 mi South 5.8 mph - N/A   Clear
8:12 AM 23.0 °F 17.0 °F 12.2 °F 63% 30.19 in 10.0 mi SSW 4.6 mph - N/A   Clear
8:32 AM 28.4 °F 23.3 °F 14.0 °F 55% 30.18 in 10.0 mi WSW 4.6 mph - N/A   Clear
8:52 AM 28.4 °F 24.6 °F 14.0 °F 55% 30.19 in 10.0 mi West 3.5 mph - N/A   Clear
9:12 AM 30.2 °F - 12.2 °F 47% 30.20 in 10.0 mi Calm Calm - N/A   Clear
9:32 AM 32.0 °F - 12.2 °F 44% 30.20 in 10.0 mi Calm Calm - N/A   Clear
9:51 AM 32.0 °F - 12.2 °F 44% 30.20 in 10.0 mi Calm Calm - N/A   Clear
10:12 AM 33.8 °F 28.6 °F 12.2 °F 41% 30.19 in 10.0 mi WSW 5.8 mph - N/A   Clear
10:32 AM 35.6 °F 31.7 °F 12.2 °F 38% 30.19 in 10.0 mi West 4.6 mph - N/A   Clear
10:52 AM 35.6 °F 29.9 °F 12.2 °F 38% 30.19 in 10.0 mi WNW 6.9 mph - N/A   Clear
11:12 AM 37.4 °F 29.8 °F 12.2 °F 36% 30.17 in 10.0 mi WNW 11.5 mph - N/A   Clear
11:32 AM 37.4 °F 28.5 °F 12.2 °F 36% 30.17 in 10.0 mi NW 15.0 mph - N/A   Clear
11:52 AM 37.4 °F 29.3 °F 10.4 °F 33% 30.16 in 10.0 mi NNW 12.7 mph - N/A   Clear
12:12 PM 37.4 °F 29.8 °F 10.4 °F 33% 30.15 in 10.0 mi NNW 11.5 mph - N/A   Clear
12:32 PM 37.4 °F 29.3 °F 12.2 °F 36% 30.15 in 10.0 mi NNW 12.7 mph - N/A   Clear
12:52 PM 37.4 °F 29.3 °F 14.0 °F 38% 30.15 in 10.0 mi NNE 12.7 mph - N/A   Clear
1:12 PM 32.0 °F 22.1 °F 19.4 °F 60% 30.15 in 10.0 mi ENE 13.8 mph - N/A   Clear
1:32 PM 32.0 °F 24.2 °F 17.6 °F 55% 30.15 in 10.0 mi ENE 9.2 mph - N/A   Clear
1:52 PM 32.0 °F 24.2 °F 19.4 °F 60% 30.16 in 10.0 mi ENE 9.2 mph - N/A   Clear
2:12 PM 33.8 °F 27.7 °F 17.6 °F 52% 30.16 in 10.0 mi NE 6.9 mph - N/A   Clear
2:31 PM 32.0 °F 24.8 °F 15.8 °F 51% 30.17 in 10.0 mi ENE 8.1 mph - N/A   Clear
2:52 PM 32.0 °F 24.8 °F 17.6 °F 55% 30.17 in 10.0 mi East 8.1 mph - N/A   Clear
3:12 PM 32.0 °F 26.4 °F 17.6 °F 55% 30.17 in 10.0 mi ENE 5.8 mph - N/A   Clear
3:32 PM 32.0 °F 24.8 °F 17.6 °F 55% 30.18 in 10.0 mi NE 8.1 mph - N/A   Clear
3:51 PM 32.0 °F 25.6 °F 17.6 °F 55% 30.19 in 10.0 mi NE 6.9 mph - N/A   Clear
4:12 PM 32.0 °F 28.7 °F 17.6 °F 55% 30.19 in 10.0 mi NE 3.5 mph - N/A   Clear
4:32 PM 32.0 °F 25.6 °F 15.8 °F 51% 30.20 in 10.0 mi NE 6.9 mph - N/A   Clear
4:52 PM 30.2 °F 23.4 °F 17.6 °F 60% 30.21 in 10.0 mi NNE 6.9 mph - N/A   Clear
5:12 PM 28.4 °F 24.6 °F 17.6 °F 64% 30.22 in 10.0 mi North 3.5 mph - N/A   Clear
5:31 PM 28.4 °F 20.4 °F 15.8 °F 59% 30.23 in 10.0 mi North 8.1 mph - N/A   Clear
5:52 PM 28.4 °F 20.4 °F 14.0 °F 55% 30.23 in 10.0 mi North 8.1 mph - N/A   Clear
6:12 PM 28.4 °F 19.7 °F 14.0 °F 55% 30.24 in 10.0 mi North 9.2 mph - N/A   Scattered Clouds
6:32 PM 26.6 °F 17.5 °F 14.0 °F 59% 30.24 in 10.0 mi North 9.2 mph - N/A   Scattered Clouds
6:52 PM 26.6 °F 20.0 °F 14.0 °F 59% 30.24 in 10.0 mi North 5.8 mph - N/A   Scattered Clouds
7:11 PM 23.0 °F 15.8 °F 14.0 °F 68% 30.24 in 10.0 mi NNW 5.8 mph - N/A   Scattered Clouds
7:32 PM 23.0 °F 17.0 °F 14.0 °F 68% 30.24 in 10.0 mi North 4.6 mph - N/A   Clear
7:52 PM 23.0 °F 18.4 °F 14.0 °F 68% 30.25 in 10.0 mi NNW 3.5 mph - N/A   Clear
8:12 PM 23.0 °F 18.4 °F 14.0 °F 68% 30.25 in 10.0 mi North 3.5 mph - N/A   Clear
8:32 PM 23.0 °F - 14.0 °F 68% 30.25 in 10.0 mi Calm Calm - N/A   Clear
8:50 PM 23.0 °F - 14.0 °F 68% 30.25 in 10.0 mi Calm Calm - N/A   Clear
9:12 PM 23.0 °F 18.4 °F 14.0 °F 68% 30.25 in 10.0 mi NNW 3.5 mph - N/A   Clear
9:32 PM 23.0 °F - 12.2 °F 63% 30.24 in 10.0 mi Calm Calm - N/A   Clear
9:52 PM 21.2 °F - 12.2 °F 68% 30.25 in 10.0 mi Calm Calm - N/A   Clear
10:11 PM 19.4 °F - 12.2 °F 74% 30.24 in 10.0 mi Calm Calm - N/A   Clear
10:32 PM 19.4 °F - 12.2 °F 74% 30.24 in 10.0 mi Calm Calm - N/A   Clear
10:52 PM 17.6 °F - 10.4 °F 73% 30.23 in 10.0 mi Calm Calm - N/A   Clear
11:12 PM 14.0 °F - 10.4 °F 86% 30.23 in 10.0 mi Calm Calm - N/A   Clear
11:32 PM 19.4 °F 10.4 °F 12.2 °F 74% 30.23 in 10.0 mi SW 6.9 mph - N/A   Clear
11:52 PM 17.6 °F 8.2 °F 10.4 °F 73% 30.21 in 10.0 mi SW 6.9 mph - N/A   Clear